Time;durP1;ratioP1;P1;durP2;ratioP2;P2;SDS_P1;SDS_P2;PMS_P1;PMS_P2;Temp;Humidity;BMP_temperature;BMP_pressure;BME280_temperature;BME280_humidity;BME280_pressure;Samples;Min_cycle;Max_cycle;Signal;HPM_P1;HPM_P2
2021/12/14 00:02:08;;;;;;;49.53;36.53;;;7.60;68.20;;;;;;5047808;28;20026;-62
2021/12/14 00:04:36;;;;;;;46.83;36.07;;;7.60;68.40;;;;;;5043284;28;20152;-62
2021/12/14 00:07:08;;;;;;;50.07;36.87;;;7.60;68.00;;;;;;5050625;28;20025;-62
2021/12/14 00:09:36;;;;;;;45.97;37.17;;;7.60;68.10;;;;;;5046812;28;20474;-61
2021/12/14 00:17:12;;;;;;;45.83;37.57;;;7.50;68.00;;;;;;5042106;28;20475;-61
2021/12/14 00:19:38;;;;;;;45.70;36.27;;;7.50;68.00;;;;;;5042717;28;20310;-61
2021/12/14 00:22:20;;;;;;;48.10;37.47;;;7.40;68.40;;;;;;5042990;28;20116;-61
2021/12/14 00:24:47;;;;;;;47.43;37.30;;;7.50;69.00;;;;;;5045584;28;20045;-61
2021/12/14 00:27:16;;;;;;;44.30;37.53;;;7.50;68.40;;;;;;5040565;28;20029;-62
2021/12/14 00:29:50;;;;;;;50.43;36.97;;;7.50;68.40;;;;;;5051001;28;20040;-62
2021/12/14 00:32:20;;;;;;;50.88;36.78;;;7.50;68.80;;;;;;5054699;28;20041;-62
2021/12/14 00:34:47;;;;;;;49.83;37.87;;;7.50;68.90;;;;;;5039352;28;20052;-62
2021/12/14 00:37:35;;;;;;;51.80;39.07;;;7.50;68.90;;;;;;5051028;28;20501;-62
2021/12/14 00:40:09;;;;;;;50.17;37.47;;;7.50;69.10;;;;;;5041110;28;20029;-62
2021/12/14 00:42:35;;;;;;;52.45;37.85;;;7.50;69.20;;;;;;5042370;28;20401;-62
2021/12/14 00:45:01;;;;;;;48.77;37.07;;;7.50;69.10;;;;;;5044734;28;20044;-62
2021/12/14 00:47:26;;;;;;;48.40;37.07;;;7.40;68.80;;;;;;5041047;28;20171;-62
2021/12/14 00:49:54;;;;;;;49.43;37.87;;;7.50;69.10;;;;;;5048549;28;20030;-62
2021/12/14 00:52:20;;;;;;;51.80;37.70;;;7.40;68.90;;;;;;5047618;28;20398;-62
2021/12/14 00:54:46;;;;;;;50.93;37.17;;;7.40;69.00;;;;;;5038828;28;20025;-62
2021/12/14 00:57:11;;;;;;;48.43;37.73;;;7.40;69.10;;;;;;5041191;28;20108;-62
2021/12/14 00:59:37;;;;;;;49.70;38.40;;;7.40;69.30;;;;;;5035041;28;20095;-62
2021/12/14 01:02:27;;;;;;;48.80;37.93;;;7.40;70.00;;;;;;5047036;28;20087;-62
2021/12/14 01:04:57;;;;;;;49.63;37.83;;;7.40;68.70;;;;;;5044785;28;20094;-62
2021/12/14 01:07:27;;;;;;;50.90;37.87;;;7.40;68.50;;;;;;5044817;28;20031;-62
2021/12/14 01:09:57;;;;;;;47.80;37.33;;;7.30;69.00;;;;;;5039878;28;20113;-62
2021/12/14 01:13:06;;;;;;;50.20;38.37;;;7.40;68.70;;;;;;5043165;28;20059;-62
2021/12/14 01:15:49;;;;;;;53.80;38.10;;;7.40;68.80;;;;;;5038604;28;20397;-62
2021/12/14 01:18:32;;;;;;;48.80;38.00;;;7.30;69.10;;;;;;5045223;28;20114;-62
2021/12/14 01:21:10;;;;;;;46.90;37.10;;;7.40;69.10;;;;;;5039915;28;20052;-61
2021/12/14 01:23:37;;;;;;;51.83;37.87;;;7.40;68.90;;;;;;5039080;28;20056;-62
2021/12/14 01:26:14;;;;;;;50.67;38.37;;;7.40;69.20;;;;;;5040694;28;20060;-62
2021/12/14 01:28:43;;;;;;;55.97;39.23;;;7.30;68.40;;;;;;5044160;28;20029;-62
2021/12/14 01:31:30;;;;;;;51.10;39.33;;;7.30;69.00;;;;;;5042126;28;20021;-62
2021/12/14 01:34:06;;;;;;;49.80;38.20;;;7.30;69.10;;;;;;5039313;28;20022;-62
2021/12/14 01:41:53;;;;;;;52.97;38.87;;;7.30;68.60;;;;;;5051750;28;20067;-62
2021/12/14 01:44:19;;;;;;;51.53;37.93;;;7.20;67.60;;;;;;5047874;28;20442;-62
2021/12/14 01:46:52;;;;;;;50.17;37.23;;;7.20;68.00;;;;;;5046248;28;20124;-62
2021/12/14 01:49:18;;;;;;;47.60;37.23;;;7.20;68.30;;;;;;5040367;28;20039;-62
2021/12/14 01:52:12;;;;;;;49.60;37.57;;;7.10;67.60;;;;;;5040753;28;20041;-62
2021/12/14 01:54:46;;;;;;;53.10;38.83;;;7.20;68.00;;;;;;5042514;28;20026;-62
2021/12/14 01:57:14;;;;;;;43.70;30.83;;;7.20;68.20;;;;;;5038496;28;20037;-62
2021/12/14 01:59:46;;;;;;;52.33;38.40;;;7.10;68.20;;;;;;5037133;28;20033;-62
2021/12/14 02:02:29;;;;;;;52.73;39.10;;;;;;;;;;5047785;28;20375;-62
2021/12/14 02:04:58;;;;;;;55.20;39.40;;;6.90;81.30;;;;;;5050488;28;20505;-62
2021/12/14 02:07:25;;;;;;;52.80;38.53;;;7.10;83.40;;;;;;5040233;28;20115;-62
2021/12/14 02:10:04;;;;;;;51.33;38.53;;;7.10;82.50;;;;;;5034019;28;20064;-62
2021/12/14 02:12:31;;;;;;;50.93;39.50;;;7.10;84.40;;;;;;5050006;28;20480;-62
2021/12/14 02:15:28;;;;;;;52.43;38.80;;;7.10;84.60;;;;;;5037517;28;20029;-61
2021/12/14 02:17:57;;;;;;;55.83;39.63;;;7.10;84.60;;;;;;5041270;28;20110;-61
2021/12/14 02:20:30;;;;;;;54.40;38.87;;;7.10;84.30;;;;;;5048374;28;20079;-62
2021/12/14 02:22:57;;;;;;;51.33;39.47;;;7.10;84.70;;;;;;5040529;28;20029;-62
2021/12/14 02:25:23;;;;;;;48.03;35.53;;;7.10;84.00;;;;;;5043442;28;20044;-62
2021/12/14 02:27:51;;;;;;;47.67;37.17;;;7.00;84.10;;;;;;5039789;28;20497;-63
2021/12/14 02:30:23;;;;;;;45.97;36.13;;;7.00;84.60;;;;;;5038213;28;20025;-63
2021/12/14 02:32:48;;;;;;;47.27;36.23;;;7.10;84.50;;;;;;5037760;28;20104;-63
2021/12/14 02:35:23;;;;;;;45.33;35.50;;;7.00;83.60;;;;;;5040049;28;20053;-63
2021/12/14 02:37:58;;;;;;;47.53;34.55;;;7.10;84.20;;;;;;5039102;28;20041;-62
2021/12/14 02:40:57;;;;;;;42.10;33.73;;;7.10;84.30;;;;;;5046951;28;20027;-63
2021/12/14 02:43:34;;;;;;;45.07;35.40;;;7.20;85.20;;;;;;5042138;28;20079;-62
2021/12/14 02:46:22;;;;;;;46.23;32.80;;;7.10;84.20;;;;;;5043885;28;20037;-63
2021/12/14 02:48:54;;;;;;;47.23;33.57;;;7.20;83.90;;;;;;5048569;28;20035;-63
2021/12/14 02:51:27;;;;;;;42.13;34.80;;;7.10;82.10;;;;;;5039986;28;20037;-63
2021/12/14 02:53:56;;;;;;;51.40;34.63;;;7.10;83.00;;;;;;5039891;28;20051;-63
2021/12/14 02:56:27;;;;;;;46.57;33.87;;;7.10;82.60;;;;;;5040932;28;20045;-63
2021/12/14 02:59:00;;;;;;;49.80;33.63;;;7.10;81.40;;;;;;5045004;28;20036;-63
2021/12/14 03:01:27;;;;;;;44.63;33.40;;;7.00;80.40;;;;;;5033675;28;20406;-63
2021/12/14 03:03:58;;;;;;;53.23;35.50;;;7.00;81.10;;;;;;5043106;28;20063;-63
2021/12/14 03:06:25;;;;;;;45.57;33.17;;;7.00;81.40;;;;;;5041078;28;20072;-62
2021/12/14 03:09:09;;;;;;;44.27;33.00;;;7.10;82.00;;;;;;5039171;28;20142;-62
2021/12/14 03:11:36;;;;;;;44.40;34.17;;;7.10;80.30;;;;;;5034702;28;20026;-62
2021/12/14 03:14:52;;;;;;;41.20;33.67;;;6.90;80.50;;;;;;5038573;28;20029;-63
2021/12/14 03:17:21;;;;;;;43.63;33.30;;;7.00;80.80;;;;;;5041483;28;20036;-63
2021/12/14 03:19:58;;;;;;;48.80;33.00;;;6.90;82.20;;;;;;5049632;28;20517;-63
2021/12/14 03:22:45;;;;;;;44.17;33.53;;;7.00;82.00;;;;;;5045704;28;20053;-62
2021/12/14 03:25:15;;;;;;;42.70;34.13;;;7.00;82.30;;;;;;5041007;28;20084;-62
2021/12/14 03:27:43;;;;;;;48.83;34.80;;;6.90;81.90;;;;;;5042579;28;20083;-62
2021/12/14 03:30:43;;;;;;;43.57;33.83;;;6.90;81.30;;;;;;5040080;28;20021;-62
2021/12/14 03:33:18;;;;;;;43.90;34.83;;;6.90;81.50;;;;;;5034929;28;20030;-62
2021/12/14 03:35:47;;;;;;;46.60;34.57;;;6.90;82.00;;;;;;5039397;28;20040;-62
2021/12/14 03:38:21;;;;;;;42.77;33.87;;;6.80;81.70;;;;;;5034159;28;20546;-63
2021/12/14 03:41:01;;;;;;;45.10;34.80;;;6.90;81.40;;;;;;5036732;28;20517;-62
2021/12/14 03:43:27;;;;;;;43.70;33.90;;;6.80;83.30;;;;;;5045568;28;20036;-62
2021/12/14 03:45:54;;;;;;;43.80;34.60;;;6.80;85.70;;;;;;5040997;28;20037;-62
2021/12/14 03:48:22;;;;;;;45.77;32.23;;;6.70;85.00;;;;;;5042938;28;20025;-62
2021/12/14 03:50:48;;;;;;;39.97;32.63;;;6.60;74.00;;;;;;5038703;28;20017;-62
2021/12/14 03:53:14;;;;;;;44.93;33.93;;;;;;;;;;5040422;28;20103;-63
2021/12/14 03:55:43;;;;;;;44.67;32.77;;;;;;;;;;5054546;28;20071;-62
2021/12/14 03:58:11;;;;;;;42.63;33.23;;;;;;;;;;5041703;28;20025;-62
2021/12/14 04:00:40;;;;;;;40.07;28.50;;;;;;;;;;5040256;28;20482;-62
2021/12/14 04:03:10;;;;;;;39.90;28.93;;;;;;;;;;5037673;28;20512;-62
2021/12/14 04:05:36;;;;;;;39.20;29.03;;;;;;;;;;5037723;28;20044;-62
2021/12/14 04:08:03;;;;;;;36.63;28.20;;;;;;;;;;5043509;28;20052;-63
2021/12/14 04:10:31;;;;;;;37.73;29.07;;;;;;;;;;5037501;28;20903;-62
2021/12/14 04:12:58;;;;;;;41.60;27.40;;;;;;;;;;5039579;28;20435;-62
2021/12/14 04:15:25;;;;;;;36.60;26.10;;;;;;;;;;5039433;28;20025;-62
2021/12/14 04:17:51;;;;;;;34.63;26.67;;;;;;;;;;5039048;28;20040;-62
2021/12/14 04:20:23;;;;;;;37.17;27.53;;;;;;;;;;5036091;28;20025;-62
2021/12/14 04:22:49;;;;;;;32.33;25.83;;;;;;;;;;5037853;28;20029;-62
2021/12/14 04:25:17;;;;;;;37.20;28.53;;;;;;;;;;5039897;28;20049;-62
2021/12/14 04:27:43;;;;;;;34.20;26.40;;;6.70;84.30;;;;;;5046691;28;20040;-62
2021/12/14 04:30:12;;;;;;;38.13;27.87;;;6.70;86.20;;;;;;5047793;28;20025;-62
2021/12/14 04:32:38;;;;;;;38.07;28.97;;;6.50;86.20;;;;;;5037945;28;20053;-62
2021/12/14 04:35:27;;;;;;;36.43;27.93;;;;;;;;;;5042430;28;20045;-62
2021/12/14 04:37:58;;;;;;;39.13;27.50;;;;;;;;;;5042805;28;20417;-62
2021/12/14 04:52:02;;;;;;;38.73;27.67;;;;;;;;;;5042136;28;20094;-62
2021/12/14 04:54:37;;;;;;;38.10;28.97;;;;;;;;;;5046012;28;20086;-62
2021/12/14 04:57:03;;;;;;;36.40;28.83;;;;;;;;;;5042762;28;20025;-62
2021/12/14 04:59:31;;;;;;;35.87;29.33;;;;;;;;;;5050656;28;20482;-63
2021/12/14 05:02:02;;;;;;;39.07;29.50;;;;;;;;;;5040747;28;20394;-63
2021/12/14 05:04:28;;;;;;;41.93;29.83;;;;;;;;;;5041596;28;20035;-62
2021/12/14 05:07:03;;;;;;;43.53;29.07;;;;;;;;;;5044820;28;20025;-62
2021/12/14 05:09:34;;;;;;;39.70;28.40;;;6.90;66.10;;;;;;5041061;28;20356;-62
2021/12/14 05:12:13;;;;;;;38.37;28.77;;;6.90;68.60;;;;;;5048303;28;20028;-63
2021/12/14 05:14:41;;;;;;;41.80;30.10;;;6.70;69.00;;;;;;5041077;28;20066;-63
2021/12/14 05:17:13;;;;;;;39.57;29.53;;;6.60;69.70;;;;;;5042521;28;20036;-62
2021/12/14 05:19:41;;;;;;;39.70;30.13;;;6.50;69.00;;;;;;5043407;28;20026;-63
2021/12/14 05:22:12;;;;;;;40.57;30.87;;;6.40;70.90;;;;;;5039384;28;20478;-62
2021/12/14 05:24:40;;;;;;;39.77;31.20;;;6.50;71.40;;;;;;5040946;28;20116;-62
2021/12/14 05:27:09;;;;;;;38.83;30.10;;;6.50;70.90;;;;;;5037542;28;20547;-62
2021/12/14 05:29:35;;;;;;;41.73;31.17;;;6.50;71.30;;;;;;5046472;28;20032;-63
2021/12/14 05:32:03;;;;;;;39.47;30.33;;;6.40;70.30;;;;;;5045802;28;20028;-63
2021/12/14 05:34:30;;;;;;;38.80;31.23;;;6.40;68.20;;;;;;5043006;28;20025;-62
2021/12/14 05:36:56;;;;;;;39.57;31.23;;;6.50;67.00;;;;;;5049555;28;20029;-62
2021/12/14 05:44:44;;;;;;;40.17;30.27;;;6.50;64.40;;;;;;5041884;28;20124;-62
2021/12/14 05:47:16;;;;;;;41.17;31.13;;;6.40;64.40;;;;;;5040841;28;20051;-62
2021/12/14 05:49:45;;;;;;;42.00;30.90;;;6.40;64.00;;;;;;5040275;28;20029;-62
2021/12/14 05:52:21;;;;;;;40.40;30.43;;;6.30;63.10;;;;;;5042253;28;20090;-62
2021/12/14 05:54:48;;;;;;;41.63;31.93;;;6.30;64.00;;;;;;5040877;28;20052;-62
2021/12/14 05:57:20;;;;;;;41.43;31.27;;;6.30;63.70;;;;;;5045470;28;20478;-62
2021/12/14 05:59:47;;;;;;;39.80;31.57;;;6.40;62.90;;;;;;5043440;28;20048;-62
2021/12/14 06:02:14;;;;;;;42.13;31.77;;;6.40;63.40;;;;;;5042000;28;20471;-62
2021/12/14 06:04:46;;;;;;;41.03;33.40;;;6.30;63.20;;;;;;5044900;28;20124;-63
2021/12/14 06:07:12;;;;;;;40.83;32.50;;;6.30;64.20;;;;;;5045369;28;20048;-62
2021/12/14 06:09:42;;;;;;;47.43;33.47;;;6.20;62.80;;;;;;5039867;28;20070;-62
2021/12/14 06:12:15;;;;;;;41.23;31.77;;;6.30;81.10;;;;;;5039336;28;20029;-63
2021/12/14 06:14:51;;;;;;;43.87;33.17;;;6.20;81.00;;;;;;5040812;28;20398;-62
2021/12/14 06:17:26;;;;;;;46.53;33.07;;;6.30;78.10;;;;;;5038618;28;20417;-63
2021/12/14 06:19:58;;;;;;;41.07;33.07;;;6.30;76.90;;;;;;5040586;28;20362;-62
2021/12/14 06:22:24;;;;;;;43.03;33.67;;;6.30;76.70;;;;;;5039767;28;20505;-62
2021/12/14 06:25:00;;;;;;;44.20;34.90;;;6.20;75.90;;;;;;5046576;28;20494;-63
2021/12/14 06:27:28;;;;;;;42.07;34.17;;;6.10;75.50;;;;;;5045942;28;20034;-63
2021/12/14 06:29:55;;;;;;;46.17;35.43;;;6.00;81.30;;;;;;5040550;28;20033;-63
2021/12/14 06:32:31;;;;;;;47.20;33.80;;;6.00;81.00;;;;;;5041830;28;20466;-63
2021/12/14 06:35:05;;;;;;;44.80;34.03;;;6.20;81.10;;;;;;5042483;28;20032;-62
2021/12/14 06:38:07;;;;;;;43.95;32.80;;;6.20;80.20;;;;;;5049748;28;20025;-62
2021/12/14 06:40:43;;;;;;;40.87;32.17;;;6.10;79.60;;;;;;5045812;28;20033;-63
2021/12/14 06:43:19;;;;;;;41.30;31.17;;;6.00;79.00;;;;;;5038011;28;20030;-63
2021/12/14 06:45:55;;;;;;;40.43;32.67;;;6.00;79.70;;;;;;5039141;28;20044;-62
2021/12/14 06:48:28;;;;;;;42.10;31.23;;;6.00;79.50;;;;;;5048677;28;20019;-62
2021/12/14 06:51:09;;;;;;;41.17;31.53;;;6.00;78.80;;;;;;5038116;28;20064;-63
2021/12/14 06:53:36;;;;;;;41.43;33.00;;;5.90;80.90;;;;;;5035643;28;20033;-63
2021/12/14 06:56:05;;;;;;;41.23;32.00;;;6.00;81.30;;;;;;5037364;28;20052;-63
2021/12/14 06:58:34;;;;;;;40.07;29.53;;;5.90;80.60;;;;;;5047718;28;20029;-62
2021/12/14 07:01:07;;;;;;;43.03;32.33;;;6.00;80.90;;;;;;5039747;28;20025;-62
2021/12/14 07:03:36;;;;;;;43.43;31.43;;;6.00;80.30;;;;;;5040758;28;20068;-61
2021/12/14 07:06:03;;;;;;;37.63;31.77;;;5.90;81.30;;;;;;5037843;28;20129;-62
2021/12/14 07:08:30;;;;;;;44.77;31.27;;;6.00;82.40;;;;;;5036335;28;20021;-62
2021/12/14 07:10:56;;;;;;;41.23;33.03;;;6.10;82.10;;;;;;5037858;28;20096;-62
2021/12/14 07:13:28;;;;;;;42.57;32.70;;;6.00;81.20;;;;;;5055118;28;20048;-61
2021/12/14 07:15:53;;;;;;;44.27;33.40;;;5.80;83.20;;;;;;5041955;28;20033;-61
2021/12/14 07:18:29;;;;;;;41.90;32.27;;;6.00;83.20;;;;;;5034184;28;20045;-61
2021/12/14 07:20:55;;;;;;;44.00;32.63;;;6.00;83.40;;;;;;5036189;28;20037;-61
2021/12/14 07:23:33;;;;;;;46.30;33.60;;;6.00;83.00;;;;;;5043945;28;20037;-61
2021/12/14 07:26:10;;;;;;;41.80;31.83;;;5.80;82.50;;;;;;5047133;28;20037;-62
2021/12/14 07:28:37;;;;;;;46.20;33.93;;;5.80;86.80;;;;;;5040875;28;20463;-62
2021/12/14 07:31:20;;;;;;;42.80;32.33;;;5.90;83.40;;;;;;5040207;28;20029;-62
2021/12/14 07:33:48;;;;;;;48.23;35.47;;;;;;;;;;5041532;28;20025;-62
2021/12/14 07:36:24;;;;;;;45.77;32.43;;;5.70;88.80;;;;;;5041078;28;20033;-62
2021/12/14 07:38:55;;;;;;;43.90;32.13;;;5.80;83.60;;;;;;5038142;28;20017;-61
2021/12/14 07:41:59;;;;;;;47.73;33.00;;;5.80;84.60;;;;;;5044275;28;20025;-61
2021/12/14 07:44:34;;;;;;;41.27;32.30;;;6.00;84.40;;;;;;5043404;28;20021;-62
2021/12/14 07:47:05;;;;;;;47.50;34.03;;;6.00;86.90;;;;;;5038040;28;20545;-61
2021/12/14 07:49:44;;;;;;;48.60;33.17;;;6.10;79.20;;;;;;5037407;28;20029;-62
2021/12/14 07:52:15;;;;;;;46.23;32.67;;;5.90;79.00;;;;;;5039991;28;20033;-62
2021/12/14 07:54:45;;;;;;;45.57;33.13;;;5.90;79.80;;;;;;5038399;28;20028;-62
2021/12/14 07:57:19;;;;;;;40.17;32.80;;;5.90;79.70;;;;;;5041070;28;20112;-60
2021/12/14 07:59:55;;;;;;;39.97;32.05;;;6.00;80.10;;;;;;5050021;28;20154;-62
